Time;durP1;ratioP1;P1;durP2;ratioP2;P2;SDS_P1;SDS_P2;PMS_P1;PMS_P2;Temp;Humidity;BMP_temperature;BMP_pressure;BME280_temperature;BME280_humidity;BME280_pressure;Samples;Min_cycle;Max_cycle;Signal;HPM_P1;HPM_P2
2022/07/11 00:01:24;;;;;;;;;3.00;3.00;;;29.38;97506.45;;;;118959;1189;25329;-65
2022/07/11 00:03:52;;;;;;;;;3.00;3.00;;;29.38;97508.86;;;;118953;1189;25220;-66
2022/07/11 00:06:20;;;;;;;;;4.25;3.50;;;29.38;97507.48;;;;118969;1189;25133;-66
2022/07/11 00:08:48;;;;;;;;;2.25;2.25;;;29.38;97508.49;;;;118975;1189;26176;-66
2022/07/11 00:11:16;;;;;;;;;2.00;2.00;;;29.37;97509.20;;;;118972;1189;25406;-66
2022/07/11 00:13:43;;;;;;;;;2.25;2.25;;;29.37;97508.83;;;;118968;1189;24870;-66
2022/07/11 00:16:13;;;;;;;;;2.50;2.50;;;29.37;97508.52;;;;118966;1189;25615;-64
2022/07/11 00:18:41;;;;;;;;;1.75;1.75;;;29.38;97509.26;;;;118950;1190;25731;-65
2022/07/11 00:21:09;;;;;;;;;3.25;2.25;;;29.38;97512.98;;;;118962;1189;25979;-66
2022/07/11 00:23:37;;;;;;;;;3.00;1.25;;;29.37;97512.88;;;;118977;1190;26449;-65
2022/07/11 00:26:06;;;;;;;;;2.25;2.25;;;29.37;97512.14;;;;118992;1190;24825;-65
2022/07/11 00:28:34;;;;;;;;;3.50;3.00;;;29.37;97514.59;;;;118968;1188;25266;-64
2022/07/11 00:31:02;;;;;;;;;2.00;2.00;;;29.37;97511.98;;;;119014;1190;24825;-65
2022/07/11 00:33:30;;;;;;;;;4.50;3.00;;;29.37;97511.06;;;;118968;1190;25072;-66
2022/07/11 00:35:58;;;;;;;;;2.25;2.25;;;29.36;97510.06;;;;118965;1188;25553;-64
2022/07/11 00:38:25;;;;;;;;;2.25;1.50;;;29.36;97508.81;;;;118975;1190;25408;-64
2022/07/11 00:40:53;;;;;;;;;2.75;2.75;;;29.35;97510.88;;;;118909;1190;25356;-64
2022/07/11 00:43:30;;;;;;;;;2.00;2.00;;;29.35;97510.91;;;;118945;1189;26148;-65
2022/07/11 00:45:58;;;;;;;;;2.00;2.00;;;29.38;97514.64;;;;119001;1189;25181;-65
2022/07/11 00:48:27;;;;;;;;;2.00;2.00;;;29.40;97515.65;;;;118985;1189;25523;-65
2022/07/11 00:50:57;;;;;;;;;3.50;2.00;;;29.39;97516.82;;;;118983;1189;24766;-65
2022/07/11 00:53:26;;;;;;;;;4.00;1.75;;;29.39;97519.17;;;;118981;1189;25555;-65
2022/07/11 00:55:55;;;;;;;;;3.50;2.00;;;29.38;97517.14;;;;118960;1189;24922;-65
2022/07/11 00:58:23;;;;;;;;;2.00;2.00;;;29.38;97517.19;;;;118979;1190;25228;-65
2022/07/11 01:00:51;;;;;;;;;2.00;2.00;;;29.38;97519.37;;;;118992;1189;24796;-65
2022/07/11 01:03:19;;;;;;;;;4.00;3.00;;;29.37;97518.20;;;;118962;1189;25815;-65
2022/07/11 01:05:46;;;;;;;;;2.00;2.00;;;29.36;97521.42;;;;118988;1190;24892;-65
2022/07/11 01:08:15;;;;;;;;;3.00;3.00;;;29.35;97521.39;;;;118973;1190;26235;-64
2022/07/11 01:10:43;;;;;;;;;3.50;3.50;;;29.35;97521.85;;;;118980;1189;24989;-64
2022/07/11 01:13:11;;;;;;;;;3.00;2.00;;;29.36;97521.51;;;;118965;1190;24818;-64
2022/07/11 01:15:39;;;;;;;;;3.00;3.00;;;29.36;97523.66;;;;118988;1190;24983;-64
2022/07/11 01:18:07;;;;;;;;;2.75;2.75;;;29.35;97520.51;;;;118981;1189;25212;-65
2022/07/11 01:20:35;;;;;;;;;2.25;2.25;;;29.34;97522.45;;;;118966;1188;25733;-64
2022/07/11 01:23:06;;;;;;;;;2.00;2.00;;;29.34;97521.39;;;;118970;1189;25024;-64
2022/07/11 01:25:34;;;;;;;;;3.00;3.00;;;29.34;97520.30;;;;118961;1189;25444;-65
2022/07/11 01:28:04;;;;;;;;;2.50;2.50;;;29.35;97520.48;;;;118967;1189;25471;-65
2022/07/11 01:30:33;;;;;;;;;2.00;2.00;;;29.35;97522.48;;;;118940;1189;25571;-66
2022/07/11 01:33:01;;;;;;;;;3.00;2.00;;;29.35;97525.08;;;;118992;1189;24954;-66
2022/07/11 01:35:29;;;;;;;;;3.75;2.00;;;29.34;97526.23;;;;118977;1190;25383;-66
2022/07/11 01:37:57;;;;;;;;;2.00;2.00;;;29.34;97528.86;;;;118980;1190;25829;-65
2022/07/11 01:40:30;;;;;;;;;2.00;2.00;;;29.34;97528.61;;;;118983;1190;25465;-65
2022/07/11 01:42:58;;;;;;;;;2.00;2.00;;;29.35;97531.85;;;;119004;1190;25140;-66
2022/07/11 01:45:26;;;;;;;;;3.00;2.25;;;29.34;97534.30;;;;118983;1189;24788;-66
2022/07/11 01:47:54;;;;;;;;;2.00;2.00;;;29.33;97533.40;;;;118945;1190;25715;-66
2022/07/11 01:50:22;;;;;;;;;3.00;1.75;;;29.32;97532.73;;;;118987;1189;25974;-66
2022/07/11 01:52:50;;;;;;;;;3.00;2.25;;;29.31;97530.53;;;;118955;1189;25380;-66
2022/07/11 01:55:18;;;;;;;;;2.00;2.00;;;29.30;97529.45;;;;118981;1190;25563;-66
2022/07/11 01:57:46;;;;;;;;;2.00;2.00;;;29.30;97530.52;;;;118959;1189;25728;-66
2022/07/11 02:00:14;;;;;;;;;2.25;2.25;;;29.29;97531.00;;;;118964;1190;25154;-66
2022/07/11 02:02:42;;;;;;;;;2.00;2.00;;;29.29;97531.80;;;;118989;1189;26255;-66
2022/07/11 02:05:10;;;;;;;;;3.00;2.50;;;29.29;97531.88;;;;118976;1189;26248;-66
2022/07/11 02:10:28;;;;;;;;;2.00;2.00;;;29.29;97527.92;;;;118979;1189;25787;-64
2022/07/11 02:13:00;;;;;;;;;2.00;2.00;;;29.29;97527.20;;;;118975;1190;26007;-65
2022/07/11 02:15:29;;;;;;;;;2.50;1.00;;;29.31;97530.95;;;;118972;1189;25488;-65
2022/07/11 02:17:57;;;;;;;;;2.25;2.25;;;29.32;97529.98;;;;118966;1190;26108;-65
2022/07/11 02:20:25;;;;;;;;;4.00;3.00;;;29.31;97529.59;;;;118984;1189;25083;-65
2022/07/11 02:22:53;;;;;;;;;2.00;2.00;;;29.30;97525.27;;;;118976;1190;25262;-65
2022/07/11 02:25:22;;;;;;;;;3.00;3.00;;;29.29;97525.83;;;;118994;1188;25784;-65
2022/07/11 02:27:51;;;;;;;;;1.75;1.75;;;29.29;97522.97;;;;118966;1189;25640;-66
2022/07/11 02:30:18;;;;;;;;;2.00;2.00;;;29.28;97522.33;;;;118965;1189;25005;-66
2022/07/11 02:32:46;;;;;;;;;2.50;2.50;;;29.28;97525.05;;;;118965;1189;26194;-65
2022/07/11 02:35:14;;;;;;;;;2.00;2.00;;;29.28;97530.77;;;;118927;1189;26117;-66
2022/07/11 02:37:43;;;;;;;;;3.00;2.25;;;29.28;97530.70;;;;118919;1189;25737;-65
2022/07/11 02:40:11;;;;;;;;;3.00;1.25;;;29.28;97533.30;;;;119004;1190;25333;-66
2022/07/11 02:42:40;;;;;;;;;3.50;3.00;;;29.28;97536.13;;;;118978;1190;25597;-66
2022/07/11 02:45:08;;;;;;;;;2.00;2.00;;;29.28;97538.94;;;;118959;1189;25520;-66
2022/07/11 02:47:38;;;;;;;;;3.00;3.00;;;29.28;97540.64;;;;118977;1189;26037;-66
2022/07/11 02:50:09;;;;;;;;;5.33;2.67;;;29.28;97538.30;;;;118959;1189;25171;-65
2022/07/11 02:52:38;;;;;;;;;2.00;2.00;;;29.30;97538.00;;;;118952;1189;26091;-66
2022/07/11 02:55:08;;;;;;;;;2.00;2.00;;;29.29;97542.53;;;;118970;1189;25697;-65
2022/07/11 02:57:38;;;;;;;;;3.33;3.00;;;29.29;97542.02;;;;118962;1189;25422;-65
2022/07/11 03:00:09;;;;;;;;;2.50;2.00;;;29.30;97545.32;;;;118975;1190;24765;-65
2022/07/11 03:02:37;;;;;;;;;2.75;2.00;;;29.31;97545.54;;;;118945;1189;25560;-65
2022/07/11 03:05:06;;;;;;;;;4.25;2.50;;;29.31;97550.65;;;;118890;1188;25941;-65
2022/07/11 03:07:34;;;;;;;;;2.00;2.00;;;29.30;97558.17;;;;118986;1189;25937;-65
2022/07/11 03:10:03;;;;;;;;;2.50;2.50;;;29.29;97559.70;;;;118941;1189;24881;-66
2022/07/11 03:12:31;;;;;;;;;3.75;1.75;;;29.29;97559.77;;;;118983;1189;25465;-66
2022/07/11 03:14:58;;;;;;;;;2.00;2.00;;;29.28;97561.46;;;;118966;1190;26814;-65
2022/07/11 03:17:27;;;;;;;;;2.25;2.25;;;29.27;97560.66;;;;118996;1188;26022;-66
2022/07/11 03:19:54;;;;;;;;;2.75;2.75;;;29.26;97561.87;;;;118997;1190;25084;-65
2022/07/11 03:22:23;;;;;;;;;3.00;1.00;;;29.25;97564.52;;;;118957;1189;24951;-65
2022/07/11 03:24:51;;;;;;;;;2.75;2.75;;;29.25;97571.18;;;;118930;1189;24976;-65
2022/07/11 03:27:19;;;;;;;;;2.00;1.25;;;29.25;97572.25;;;;118959;1190;25458;-66
2022/07/11 03:29:47;;;;;;;;;3.00;3.00;;;29.25;97568.81;;;;118978;1189;25275;-65
2022/07/11 03:32:15;;;;;;;;;1.50;1.50;;;29.25;97570.35;;;;118995;1189;24916;-65
2022/07/11 03:35:40;;;;;;;;;5.00;2.00;;;29.25;97567.20;;;;118975;1189;25224;-65
2022/07/11 03:37:31;;;;;;;;;2.00;2.00;;;29.32;97568.41;;;;118964;1189;25109;-65
2022/07/11 03:39:59;;;;;;;;;1.75;1.75;;;29.32;97575.91;;;;118990;1189;25243;-65
2022/07/11 03:42:31;;;;;;;;;1.00;1.00;;;29.31;97580.84;;;;118962;1190;25463;-65
2022/07/11 03:45:00;;;;;;;;;2.50;2.50;;;29.30;97580.74;;;;118998;1189;25501;-65
2022/07/11 03:47:32;;;;;;;;;2.00;2.00;;;29.28;97579.75;;;;118951;1189;26161;-65
2022/07/11 03:50:00;;;;;;;;;2.25;1.75;;;29.27;97581.50;;;;118972;1190;26424;-65
2022/07/11 03:52:28;;;;;;;;;2.00;2.00;;;29.26;97581.58;;;;118975;1188;25039;-66
2022/07/11 03:54:56;;;;;;;;;2.00;1.25;;;29.26;97583.73;;;;118977;1190;26228;-65
2022/07/11 03:57:24;;;;;;;;;4.00;1.00;;;29.25;97581.05;;;;118936;1190;25874;-65
2022/07/11 03:59:52;;;;;;;;;2.75;2.75;;;29.25;97583.71;;;;118986;1189;25594;-66
2022/07/11 04:02:19;;;;;;;;;2.00;2.00;;;29.24;97584.33;;;;118960;1189;24994;-65
2022/07/11 04:04:47;;;;;;;;;1.00;1.00;;;29.24;97589.53;;;;118976;1190;25629;-65
2022/07/11 04:07:15;;;;;;;;;2.00;2.00;;;29.24;97589.26;;;;118977;1189;25250;-63
2022/07/11 04:09:44;;;;;;;;;4.00;3.00;;;29.23;97589.23;;;;118981;1189;25342;-65
2022/07/11 04:12:12;;;;;;;;;6.00;3.00;;;29.23;97591.35;;;;118975;1190;25367;-65
2022/07/11 04:14:39;;;;;;;;;1.75;1.50;;;29.23;97589.23;;;;118961;1189;25593;-65
2022/07/11 04:17:07;;;;;;;;;3.00;3.00;;;29.23;97593.09;;;;118970;1189;25334;-65
2022/07/11 04:19:35;;;;;;;;;2.00;2.00;;;29.23;97590.04;;;;118964;1189;25579;-65
2022/07/11 04:22:04;;;;;;;;;2.00;2.00;;;29.23;97591.23;;;;118979;1189;26023;-65
2022/07/11 04:24:32;;;;;;;;;3.00;2.00;;;29.23;97588.65;;;;119004;1188;24951;-66
2022/07/11 04:26:59;;;;;;;;;2.75;1.50;;;29.24;97590.32;;;;118992;1189;25845;-66
2022/07/11 04:29:27;;;;;;;;;2.50;2.50;;;29.24;97593.55;;;;118985;1190;25058;-66
2022/07/11 04:31:55;;;;;;;;;2.00;2.00;;;29.23;97595.95;;;;118989;1189;25568;-66
2022/07/11 04:34:22;;;;;;;;;3.00;3.00;;;29.23;97593.92;;;;118948;1190;25549;-66
2022/07/11 04:36:50;;;;;;;;;1.50;1.50;;;29.23;97594.98;;;;118976;1189;26419;-66
2022/07/11 04:39:18;;;;;;;;;2.50;2.50;;;29.24;97597.52;;;;118999;1189;25553;-66
2022/07/11 04:41:46;;;;;;;;;2.00;1.25;;;29.23;97598.95;;;;118922;1190;26262;-66
2022/07/11 04:44:14;;;;;;;;;3.00;2.50;;;29.22;97604.86;;;;118988;1189;26098;-66
2022/07/11 04:46:42;;;;;;;;;2.00;2.00;;;29.22;97604.95;;;;118982;1189;24743;-66
2022/07/11 04:49:10;;;;;;;;;2.50;2.00;;;29.22;97607.27;;;;118970;1189;25108;-66
2022/07/11 04:51:38;;;;;;;;;1.25;1.25;;;29.23;97612.35;;;;118996;1189;25278;-66
2022/07/11 04:54:05;;;;;;;;;3.00;2.25;;;29.23;97617.92;;;;118970;1189;24811;-66
2022/07/11 04:56:33;;;;;;;;;3.25;3.25;;;29.23;97617.02;;;;118962;1189;25471;-66
2022/07/11 04:59:01;;;;;;;;;2.75;2.75;;;29.22;97619.05;;;;118985;1189;25622;-66
2022/07/11 05:01:29;;;;;;;;;3.00;3.00;;;29.23;97616.11;;;;118964;1189;25265;-66
2022/07/11 05:03:57;;;;;;;;;2.00;2.00;;;29.23;97625.71;;;;118961;1189;25721;-65
2022/07/11 05:06:26;;;;;;;;;1.00;1.00;;;29.23;97632.77;;;;118986;1189;24949;-66
2022/07/11 05:08:54;;;;;;;;;1.33;1.33;;;29.22;97627.52;;;;118970;1189;25138;-65
2022/07/11 05:11:23;;;;;;;;;2.00;2.00;;;29.22;97630.83;;;;118966;1189;25718;-65
2022/07/11 05:13:56;;;;;;;;;1.50;1.50;;;29.24;97635.23;;;;118984;1189;25394;-65
2022/07/11 05:16:24;;;;;;;;;2.50;0.75;;;29.24;97640.77;;;;118987;1189;25343;-66
2022/07/11 05:18:52;;;;;;;;;2.00;1.25;;;29.23;97637.14;;;;118976;1190;25280;-65
2022/07/11 05:21:23;;;;;;;;;0.00;0.00;;;29.23;97639.94;;;;118958;1189;25333;-66
2022/07/11 05:23:54;;;;;;;;;3.00;1.00;;;29.24;97635.69;;;;118969;1189;25869;-64
2022/07/11 05:26:22;;;;;;;;;1.75;1.75;;;29.25;97638.74;;;;118959;1188;25619;-65
2022/07/11 05:28:50;;;;;;;;;2.25;2.00;;;29.24;97633.06;;;;118969;1189;24978;-65
2022/07/11 05:31:17;;;;;;;;;1.50;1.50;;;29.23;97627.73;;;;118989;1189;24837;-66
2022/07/11 05:33:46;;;;;;;;;2.00;2.00;;;29.23;97627.04;;;;118977;1189;26011;-65
2022/07/11 05:36:14;;;;;;;;;2.50;2.00;;;29.23;97628.65;;;;118959;1189;25810;-65
2022/07/11 05:38:41;;;;;;;;;3.25;3.25;;;29.23;97625.67;;;;118955;1189;25360;-65
2022/07/11 05:41:10;;;;;;;;;2.00;1.00;;;29.23;97623.34;;;;118964;1189;25397;-66
2022/07/11 05:43:38;;;;;;;;;2.00;2.00;;;29.22;97625.87;;;;118987;1189;25097;-66
2022/07/11 05:46:06;;;;;;;;;4.75;2.00;;;29.23;97627.09;;;;118971;1189;24998;-66
2022/07/11 05:48:34;;;;;;;;;0.67;0.67;;;29.23;97626.44;;;;119005;1189;25670;-66
2022/07/11 05:51:02;;;;;;;;;1.25;1.00;;;29.23;97624.44;;;;118958;1190;25766;-66
2022/07/11 05:53:29;;;;;;;;;1.50;1.50;;;29.23;97628.77;;;;118973;1189;25320;-65
2022/07/11 05:55:57;;;;;;;;;2.00;2.00;;;29.23;97633.08;;;;118979;1190;25091;-65
2022/07/11 05:58:25;;;;;;;;;2.67;2.00;;;29.23;97632.54;;;;118980;1189;25501;-65
2022/07/11 06:00:53;;;;;;;;;1.75;1.75;;;29.24;97635.59;;;;118960;1189;24957;-65
2022/07/11 06:03:20;;;;;;;;;1.75;1.50;;;29.24;97637.85;;;;118971;1188;24865;-66
2022/07/11 06:05:49;;;;;;;;;1.75;1.50;;;29.24;97639.63;;;;118991;1189;25287;-66
2022/07/11 06:11:03;;;;;;;;;5.25;2.25;;;29.01;97650.92;;;;118966;1189;25439;-69
2022/07/11 06:13:31;;;;;;;;;3.00;3.00;;;28.83;97649.27;;;;118983;1189;24751;-68
2022/07/11 06:15:59;;;;;;;;;3.25;3.25;;;28.77;97652.03;;;;118895;1190;24851;-70
2022/07/11 06:18:27;;;;;;;;;2.25;2.00;;;28.64;97649.16;;;;118935;1188;26127;-70
2022/07/11 06:20:55;;;;;;;;;5.75;4.00;;;28.57;97648.77;;;;118957;1189;25339;-70
2022/07/11 06:23:23;;;;;;;;;3.00;3.00;;;28.52;97650.77;;;;118873;1191;26092;-66
2022/07/11 06:25:51;;;;;;;;;4.00;4.00;;;28.43;97646.96;;;;118927;1189;25099;-69
2022/07/11 06:28:19;;;;;;;;;2.00;2.00;;;28.21;97657.61;;;;118902;1189;25188;-70
2022/07/11 06:30:46;;;;;;;;;3.00;3.00;;;27.96;97655.07;;;;118929;1189;25104;-72
2022/07/11 06:33:19;;;;;;;;;2.00;2.00;;;27.89;97658.71;;;;118927;1189;25133;-74
2022/07/11 06:35:49;;;;;;;;;2.75;2.00;;;27.95;97658.26;;;;118916;1190;24815;-75
2022/07/11 06:38:17;;;;;;;;;2.50;2.00;;;27.96;97664.33;;;;118841;1190;26252;-75
2022/07/11 06:40:46;;;;;;;;;3.25;3.00;;;27.95;97665.70;;;;118909;1190;25078;-64
2022/07/11 06:43:14;;;;;;;;;4.00;3.25;;;27.89;97666.73;;;;118942;1189;25358;-68
2022/07/11 06:45:42;;;;;;;;;3.50;3.50;;;27.76;97668.16;;;;118936;1189;25971;-66
2022/07/11 06:48:10;;;;;;;;;6.50;3.00;;;27.74;97672.92;;;;118966;1189;24717;-67
2022/07/11 06:50:38;;;;;;;;;3.25;3.00;;;27.74;97675.18;;;;118950;1189;25396;-67
2022/07/11 06:53:06;;;;;;;;;3.00;3.00;;;27.67;97682.25;;;;118957;1190;25663;-67
2022/07/11 06:55:34;;;;;;;;;3.33;3.33;;;27.59;97678.48;;;;118949;1189;25390;-70
2022/07/11 06:58:02;;;;;;;;;4.25;3.00;;;27.56;97685.29;;;;118896;1190;24914;-72
2022/07/11 07:00:50;;;;;;;;;4.00;3.00;;;27.60;97682.29;;;;118926;1190;24940;-66
2022/07/11 07:03:20;;;;;;;;;5.00;3.25;;;27.65;97684.02;;;;118925;1190;24888;-73
2022/07/11 07:05:48;;;;;;;;;3.00;3.00;;;27.65;97680.10;;;;118963;1188;25519;-68
2022/07/11 07:08:15;;;;;;;;;2.75;2.75;;;27.69;97680.14;;;;118946;1189;25549;-67
2022/07/11 07:10:44;;;;;;;;;5.75;3.75;;;27.76;97682.64;;;;118875;1191;25229;-71
2022/07/11 07:13:12;;;;;;;;;2.00;2.00;;;27.70;97678.33;;;;118931;1189;24852;-65
2022/07/11 07:15:40;;;;;;;;;3.50;3.50;;;27.82;97679.70;;;;118934;1189;25538;-69
2022/07/11 07:18:08;;;;;;;;;4.00;3.00;;;27.80;97679.12;;;;118936;1189;25484;-70
2022/07/11 07:20:36;;;;;;;;;3.50;3.00;;;27.86;97681.91;;;;118928;1190;25692;-69
2022/07/11 07:23:04;;;;;;;;;5.00;4.50;;;27.97;97684.08;;;;118853;1190;25627;-73
2022/07/11 07:25:32;;;;;;;;;7.25;4.00;;;28.01;97689.02;;;;118845;1189;25510;-63
2022/07/11 07:27:59;;;;;;;;;2.25;2.00;;;28.09;97690.33;;;;118934;1189;25791;-64
2022/07/11 07:30:49;;;;;;;;;6.25;4.00;;;28.10;97687.77;;;;117550;1203;23355;-67
2022/07/11 07:33:17;;;;;;;;;4.00;3.00;;;28.22;97689.88;;;;118438;1193;23234;-68
2022/07/11 07:36:06;;;;;;;;;3.00;3.00;;;28.41;97692.48;;;;118991;1188;25258;-69
2022/07/11 07:38:33;;;;;;;;;4.75;3.50;;;28.49;97693.64;;;;119185;1187;25146;-69
2022/07/11 07:41:01;;;;;;;;;5.00;2.75;;;28.51;97704.26;;;;119192;1187;25524;-67
2022/07/11 07:43:29;;;;;;;;;4.00;2.33;;;28.43;97699.91;;;;119009;1189;24869;-66
2022/07/11 07:45:57;;;;;;;;;3.00;3.00;;;28.38;97697.40;;;;119166;1187;25524;-73
2022/07/11 07:48:24;;;;;;;;;2.25;2.25;;;28.43;97701.44;;;;119197;1188;25279;-70
2022/07/11 07:51:00;;;;;;;;;3.50;3.25;;;28.46;97701.52;;;;119205;1187;25536;-68
2022/07/11 07:53:28;;;;;;;;;4.00;4.00;;;28.45;97701.41;;;;119181;1186;25679;-68
2022/07/11 07:55:55;;;;;;;;;1.00;1.00;;;28.38;97695.98;;;;119168;1186;25482;-71
2022/07/11 07:58:23;;;;;;;;;4.50;3.00;;;28.44;97695.39;;;;119176;1187;26053;-70
2022/07/11 08:03:37;;;;;;;;;3.00;3.00;;;28.59;97691.32;;;;119203;1187;25092;-67
2022/07/11 08:06:05;;;;;;;;;6.00;4.25;;;28.55;97695.25;;;;118992;1189;25382;-67
2022/07/11 08:08:34;;;;;;;;;5.75;5.00;;;28.55;97692.19;;;;119199;1188;24846;-70
2022/07/11 08:11:05;;;;;;;;;3.00;3.00;;;28.53;97687.58;;;;118930;1190;25751;-62
2022/07/11 08:13:53;;;;;;;;;4.75;3.75;;;28.60;97687.48;;;;119191;1187;25396;-63
2022/07/11 08:16:21;;;;;;;;;3.75;3.25;;;28.60;97691.95;;;;119189;1187;26347;-66
2022/07/11 08:18:49;;;;;;;;;5.50;4.50;;;28.56;97693.40;;;;119253;1186;25128;-66
2022/07/11 08:21:17;;;;;;;;;3.25;3.25;;;28.52;97691.50;;;;119174;1187;25267;-67
2022/07/11 08:23:46;;;;;;;;;3.75;3.00;;;28.50;97690.75;;;;118955;1189;24949;-67
2022/07/11 08:26:15;;;;;;;;;3.00;3.00;;;28.48;97690.64;;;;119208;1188;24961;-69
2022/07/11 08:28:43;;;;;;;;;4.00;4.00;;;28.46;97685.86;;;;119321;1186;25672;-68
2022/07/11 08:31:11;;;;;;;;;4.00;4.00;;;28.42;97687.04;;;;119332;1185;25278;-68
2022/07/11 08:33:39;;;;;;;;;3.00;3.00;;;28.41;97681.77;;;;119334;1187;25700;-67
2022/07/11 08:36:07;;;;;;;;;3.00;3.00;;;28.42;97689.86;;;;119342;1187;25516;-66
2022/07/11 08:42:00;;;;;;;;;2.00;2.00;;;28.49;97684.27;;;;119247;1186;25788;-66
2022/07/11 08:44:28;;;;;;;;;4.50;3.00;;;28.47;97692.08;;;;119259;1187;24856;-67
2022/07/11 08:46:57;;;;;;;;;5.00;3.33;;;28.44;97691.67;;;;119235;1187;24880;-66
2022/07/11 08:49:27;;;;;;;;;4.25;4.00;;;28.39;97689.63;;;;119252;1186;25320;-65
2022/07/11 08:51:55;;;;;;;;;3.50;3.25;;;28.37;97688.21;;;;119158;1188;25677;-66
2022/07/11 08:54:23;;;;;;;;;4.50;4.50;;;28.35;97690.36;;;;119234;1187;24951;-65
2022/07/11 08:56:54;;;;;;;;;4.00;2.75;;;28.28;97679.83;;;;119205;1186;25292;-66
2022/07/11 08:59:23;;;;;;;;;6.00;4.00;;;28.28;97683.95;;;;118986;1188;25148;-66
2022/07/11 09:01:52;;;;;;;;;3.50;2.25;;;28.25;97687.40;;;;119019;1188;25742;-66
2022/07/11 09:04:23;;;;;;;;;3.50;3.50;;;28.31;97680.44;;;;118971;1188;25332;-63
2022/07/11 09:06:52;;;;;;;;;3.25;3.25;;;28.35;97675.70;;;;119183;1188;25242;-71
2022/07/11 09:09:20;;;;;;;;;2.50;2.50;;;28.37;97681.98;;;;119218;1187;25304;-64
2022/07/11 09:11:55;;;;;;;;;2.50;2.50;;;28.42;97685.71;;;;119213;1188;24887;-65
2022/07/11 09:14:25;;;;;;;;;2.50;2.50;;;28.39;97686.86;;;;118999;1189;25246;-69
2022/07/11 09:17:04;;;;;;;;;3.75;3.75;;;28.38;97686.06;;;;119229;1186;25249;-71
2022/07/11 09:19:39;;;;;;;;;4.00;4.00;;;28.32;97689.27;;;;118994;1188;25329;-67
2022/07/11 09:28:07;;;;;;;;;3.00;3.00;;;28.31;97675.65;;;;119217;1188;25477;-66
2022/07/11 09:30:39;;;;;;;;;4.75;3.00;;;28.36;97672.86;;;;119198;1187;25242;-66
2022/07/11 09:33:09;;;;;;;;;3.00;3.00;;;28.41;97677.70;;;;119206;1187;25360;-71
2022/07/11 09:35:40;;;;;;;;;2.25;2.00;;;28.42;97682.95;;;;119229;1188;25023;-78
2022/07/11 09:38:11;;;;;;;;;3.25;1.50;;;28.42;97684.65;;;;119190;1187;25129;-67
2022/07/11 09:40:43;;;;;;;;;2.75;2.75;;;28.41;97676.45;;;;119230;1188;25778;-70
2022/07/11 09:43:11;;;;;;;;;4.25;2.50;;;28.37;97679.48;;;;119237;1187;24770;-69
2022/07/11 09:45:41;;;;;;;;;4.75;3.00;;;28.37;97672.55;;;;119226;1187;25594;-68
2022/07/11 09:48:13;;;;;;;;;5.00;3.50;;;28.37;97671.56;;;;118972;1189;25352;-66
2022/07/11 09:50:56;;;;;;;;;4.00;4.00;;;28.40;97683.11;;;;119227;1188;25136;-63
2022/07/11 09:53:24;;;;;;;;;3.00;2.50;;;28.50;97672.45;;;;119226;1187;25841;-66
2022/07/11 09:55:52;;;;;;;;;4.25;3.50;;;28.56;97665.60;;;;119241;1188;25645;-64
2022/07/11 09:58:28;;;;;;;;;2.00;2.00;;;28.63;97667.61;;;;119236;1187;26125;-69
2022/07/11 10:00:56;;;;;;;;;3.00;3.00;;;28.71;97661.52;;;;119246;1188;25148;-66
2022/07/11 10:03:25;;;;;;;;;3.00;3.00;;;28.76;97662.78;;;;118984;1188;25577;-65
2022/07/11 10:06:13;;;;;;;;;3.00;3.00;;;28.88;97661.77;;;;119047;1187;25149;-64
2022/07/11 10:08:42;;;;;;;;;2.50;2.50;;;28.94;97664.98;;;;119175;1187;25465;-67
2022/07/11 10:11:11;;;;;;;;;3.50;2.00;;;28.96;97663.08;;;;119189;1187;25558;-68
2022/07/11 10:13:40;;;;;;;;;2.00;2.00;;;28.95;97669.16;;;;119080;1188;25058;-67
2022/07/11 10:16:13;;;;;;;;;2.25;2.25;;;28.97;97670.71;;;;119195;1187;25721;-67
2022/07/11 10:19:05;;;;;;;;;3.00;2.00;;;29.01;97656.40;;;;119200;1186;25409;-67
2022/07/11 10:21:54;;;;;;;;;2.00;2.00;;;29.10;97659.46;;;;119212;1187;24970;-67
2022/07/11 10:24:38;;;;;;;;;2.50;2.50;;;29.13;97650.41;;;;119205;1187;25392;-67
2022/07/11 10:27:14;;;;;;;;;2.00;2.00;;;29.17;97655.78;;;;119018;1187;24697;-66
2022/07/11 10:29:51;;;;;;;;;2.00;2.00;;;29.21;97649.27;;;;119013;1188;25541;-65
2022/07/11 10:32:19;;;;;;;;;3.75;3.00;;;29.26;97660.10;;;;119081;1188;25426;-65
2022/07/11 10:35:11;;;;;;;;;2.75;2.00;;;29.27;97650.48;;;;119073;1187;26227;-66
2022/07/11 10:37:50;;;;;;;;;2.50;2.00;;;29.30;97639.84;;;;119068;1188;25167;-65
2022/07/11 10:40:50;;;;;;;;;1.00;1.00;;;29.36;97641.77;;;;118961;1189;25086;-68
2022/07/11 10:43:21;;;;;;;;;4.00;2.50;;;29.53;97639.01;;;;118911;1189;25479;-68
2022/07/11 10:46:09;;;;;;;;;2.25;2.25;;;29.57;97642.18;;;;119044;1186;24869;-69
2022/07/11 10:48:59;;;;;;;;;2.00;2.00;;;29.58;97637.30;;;;119024;1187;25358;-71
2022/07/11 10:51:47;;;;;;;;;3.00;3.00;;;29.59;97632.77;;;;119065;1188;25563;-71
2022/07/11 10:54:51;;;;;;;;;5.00;3.00;;;29.70;97631.13;;;;119055;1188;25639;-71
2022/07/11 10:57:26;;;;;;;;;2.25;2.25;;;29.68;97633.54;;;;119070;1187;25389;-71
2022/07/11 11:00:04;;;;;;;;;2.75;1.25;;;29.67;97626.70;;;;119075;1187;24875;-72
2022/07/11 11:03:00;;;;;;;;;3.00;3.00;;;29.70;97626.95;;;;119064;1187;25479;-69
2022/07/11 11:05:48;;;;;;;;;3.00;3.00;;;29.83;97623.76;;;;119045;1188;25498;-66
2022/07/11 11:08:34;;;;;;;;;3.00;2.50;;;29.80;97631.02;;;;118986;1188;26880;-70
2022/07/11 11:11:08;;;;;;;;;2.25;2.25;;;29.75;97637.58;;;;118994;1189;25387;-67
2022/07/11 11:13:36;;;;;;;;;4.75;4.00;;;29.74;97631.15;;;;118991;1187;24795;-67
2022/07/11 11:16:22;;;;;;;;;3.50;2.75;;;29.73;97633.02;;;;118968;1188;25245;-65
2022/07/11 11:18:50;;;;;;;;;4.00;2.00;;;29.74;97634.88;;;;119001;1189;25383;-63
2022/07/11 11:21:19;;;;;;;;;4.00;3.00;;;29.73;97652.48;;;;119000;1189;25167;-62
2022/07/11 11:23:59;;;;;;;;;6.50;3.00;;;29.77;97653.77;;;;118982;1189;24972;-63
2022/07/11 11:26:50;;;;;;;;;3.00;3.00;;;29.78;97656.31;;;;118989;1189;25305;-64
2022/07/11 11:29:23;;;;;;;;;3.00;3.00;;;29.79;97665.23;;;;119020;1188;24866;-65
2022/07/11 11:31:54;;;;;;;;;2.00;2.00;;;29.78;97677.39;;;;119149;1188;25711;-62
2022/07/11 11:34:22;;;;;;;;;3.00;2.00;;;29.82;97673.80;;;;118955;1190;26022;-62
2022/07/11 11:36:59;;;;;;;;;5.00;3.25;;;29.83;97677.09;;;;119137;1188;26464;-63
2022/07/11 11:39:30;;;;;;;;;3.25;3.25;;;29.83;97680.77;;;;118934;1189;25778;-65
2022/07/11 11:42:22;;;;;;;;;3.00;3.00;;;29.84;97681.78;;;;118947;1189;25078;-63
2022/07/11 11:45:11;;;;;;;;;4.00;4.00;;;29.93;97681.59;;;;118929;1189;25312;-67
2022/07/11 11:47:50;;;;;;;;;3.00;3.00;;;30.00;97687.53;;;;118984;1189;26194;-63
2022/07/11 11:50:19;;;;;;;;;2.00;2.00;;;29.98;97683.77;;;;119139;1188;24710;-63
2022/07/11 11:52:47;;;;;;;;;3.50;2.00;;;29.93;97686.08;;;;119150;1187;24987;-63
2022/07/11 11:55:16;;;;;;;;;3.00;3.00;;;29.91;97684.80;;;;118927;1189;25940;-61
2022/07/11 11:57:44;;;;;;;;;3.75;3.00;;;29.89;97683.17;;;;118982;1188;24786;-61
2022/07/11 12:00:27;;;;;;;;;2.00;2.00;;;29.86;97683.13;;;;119123;1188;25096;-60
2022/07/11 12:03:15;;;;;;;;;3.33;2.67;;;29.94;97688.30;;;;119111;1188;26245;-61
2022/07/11 12:05:55;;;;;;;;;3.75;2.75;;;29.93;97683.84;;;;118980;1188;25245;-60
2022/07/11 12:08:28;;;;;;;;;4.00;2.25;;;29.93;97681.19;;;;118988;1189;26108;-61
2022/07/11 12:10:56;;;;;;;;;1.50;1.50;;;29.91;97685.67;;;;119124;1188;26840;-61
2022/07/11 12:13:24;;;;;;;;;3.00;2.00;;;29.88;97685.53;;;;119132;1187;25292;-67
2022/07/11 12:18:38;;;;;;;;;2.00;1.67;;;29.86;97688.23;;;;119151;1188;25170;-70
2022/07/11 12:21:13;;;;;;;;;4.00;3.00;;;29.73;97675.38;;;;119133;1187;25291;-68
2022/07/11 12:23:41;;;;;;;;;4.00;3.00;;;29.71;97688.55;;;;119171;1186;24765;-64
2022/07/11 12:26:11;;;;;;;;;3.50;3.50;;;29.64;97691.20;;;;118993;1186;24913;-69
2022/07/11 12:29:19;;;;;;;;;3.00;3.00;;;29.54;97691.20;;;;119147;1188;25282;-73
2022/07/11 12:31:47;;;;;;;;;3.25;2.75;;;29.59;97687.90;;;;118998;1189;24867;-71
2022/07/11 12:34:20;;;;;;;;;3.00;3.00;;;29.52;97684.98;;;;119094;1187;25830;-70
2022/07/11 12:36:48;;;;;;;;;2.00;2.00;;;29.55;97681.77;;;;118861;1188;24831;-72
2022/07/11 12:39:23;;;;;;;;;4.00;4.00;;;29.59;97675.66;;;;119165;1188;25629;-72
2022/07/11 12:41:52;;;;;;;;;3.50;3.50;;;29.68;97679.61;;;;119113;1187;26504;-66
2022/07/11 12:47:24;;;;;;;;;3.75;3.75;;;29.75;97678.17;;;;119153;1188;26324;-68
2022/07/11 12:49:52;;;;;;;;;3.00;3.00;;;29.66;97674.43;;;;119136;1187;25371;-67